Check out our new PWSWeather beta!
PWSweather.com
Personal Weather Stations
Station Observations
ILOMBARD30
LodiIT 26900

LodiIT 26900

Lat: 45.2993, Lon: 9.5207

Elevation: 255

Station Type: Davis Vantege Pro2 Plus 24h

http://www.meteo-iw2gob.it

High Low Average
Temperature 83.2°F28.4°C 64.1°F17.8°C 74.1°F23.4°C
Dew Point 61.9°F16.6°C 57.6°F14.2°C 59.7°F15.4°C
Winds 9.2 mph 14.8 kmh Calm Calm 3.0 mph ESE4.8 kmh ESE
Wind Gusts 13.8 mph22.2 kmh -- 4.0 mph6.4 kmh
Humidity 83% 43% 62%
Pressure 30.00 in1015.9 mb 29.88 in1011.9 mb -
Precipitation 0.00 in0.0 mm - -
Hour Temp Dew Point Humidity Winds Wind Gusts Pressure Precip Precip Rate Daily Precip Total
12:00 AM 73.0°F22.8°C 61.0°F16.1°C 66% 3.5 mph WSW5.6 kmh WSW 4.6 mph7.4 kmh 29.88 in1011.9 mb - 0.00 in0.0 mm 0.00 in0.0 mm
12:05 AM 73.0°F22.8°C 61.0°F16.1°C 66% 2.3 mph WSW3.7 kmh WSW 3.5 mph5.6 kmh 29.88 in1011.9 mb - 0.00 in0.0 mm 0.00 in0.0 mm
12:10 AM 73.0°F22.8°C 60.9°F16.1°C 66% 2.3 mph WSW3.7 kmh WSW 3.5 mph5.6 kmh 29.88 in1011.9 mb - 0.00 in0.0 mm 0.00 in0.0 mm
12:15 AM 72.8°F22.7°C 60.8°F16.0°C 66% 2.3 mph WSW3.7 kmh WSW 3.5 mph5.6 kmh 29.88 in1011.9 mb - 0.00 in0.0 mm 0.00 in0.0 mm
12:20 AM 72.7°F22.6°C 60.7°F15.9°C 66% 2.3 mph WSW3.7 kmh WSW 3.5 mph5.6 kmh 29.88 in1011.9 mb - 0.00 in0.0 mm 0.00 in0.0 mm
12:25 AM 72.6°F22.6°C 60.6°F15.9°C 66% 2.3 mph WSW3.7 kmh WSW 3.5 mph5.6 kmh 29.88 in1011.9 mb - 0.00 in0.0 mm 0.00 in0.0 mm
12:30 AM 72.6°F22.6°C 61.0°F16.1°C 67% 1.2 mph WSW1.9 kmh WSW 2.3 mph3.7 kmh 29.88 in1011.9 mb - 0.00 in0.0 mm 0.00 in0.0 mm
12:35 AM 72.5°F22.5°C 60.9°F16.1°C 67% 1.2 mph WSW1.9 kmh WSW 2.3 mph3.7 kmh 29.88 in1011.9 mb - 0.00 in0.0 mm 0.00 in0.0 mm
12:40 AM 72.4°F22.4°C 60.8°F16.0°C 67% Calm Calm -- 29.88 in1011.9 mb - 0.00 in0.0 mm 0.00 in0.0 mm
12:45 AM 72.3°F22.4°C 61.1°F16.2°C 68% Calm Calm -- 29.88 in1011.9 mb - 0.00 in0.0 mm 0.00 in0.0 mm
12:50 AM 72.2°F22.3°C 61.1°F16.2°C 68% Calm Calm -- 29.88 in1011.9 mb - 0.00 in0.0 mm 0.00 in0.0 mm
12:55 AM 72.1°F22.3°C 61.0°F16.1°C 68% Calm Calm -- 29.88 in1011.9 mb - 0.00 in0.0 mm 0.00 in0.0 mm
01:00 AM 72.0°F22.2°C 60.9°F16.1°C 68% Calm Calm -- 29.88 in1011.9 mb - 0.00 in0.0 mm 0.00 in0.0 mm
01:05 AM 71.9°F22.2°C 61.2°F16.2°C 69% Calm Calm -- 29.88 in1011.9 mb - 0.00 in0.0 mm 0.00 in0.0 mm
01:10 AM 71.7°F22.1°C 61.4°F16.3°C 70% Calm Calm -- 29.88 in1011.9 mb - 0.00 in0.0 mm 0.00 in0.0 mm
01:15 AM 71.4°F21.9°C 61.1°F16.2°C 70% Calm Calm -- 29.88 in1011.9 mb - 0.00 in0.0 mm 0.00 in0.0 mm
01:20 AM 71.1°F21.7°C 61.2°F16.2°C 71% Calm Calm -- 29.88 in1011.9 mb - 0.00 in0.0 mm 0.00 in0.0 mm
01:25 AM 70.9°F21.6°C 61.0°F16.1°C 71% Calm Calm -- 29.88 in1011.9 mb - 0.00 in0.0 mm 0.00 in0.0 mm
01:30 AM 70.8°F21.6°C 61.3°F16.3°C 72% Calm Calm -- 29.88 in1011.9 mb - 0.00 in0.0 mm 0.00 in0.0 mm
01:35 AM 70.6°F21.4°C 61.1°F16.2°C 72% Calm Calm -- 29.89 in1012.2 mb - 0.00 in0.0 mm 0.00 in0.0 mm
01:40 AM 70.3°F21.3°C 61.2°F16.2°C 73% 1.2 mph NW1.9 kmh NW 3.5 mph5.6 kmh 29.89 in1012.2 mb - 0.00 in0.0 mm 0.00 in0.0 mm
01:45 AM 69.8°F21.0°C 61.5°F16.4°C 75% 2.3 mph N3.7 kmh N 3.5 mph5.6 kmh 29.89 in1012.2 mb - 0.00 in0.0 mm 0.00 in0.0 mm
01:50 AM 69.2°F20.7°C 61.7°F16.5°C 77% 2.3 mph N3.7 kmh N 3.5 mph5.6 kmh 29.89 in1012.2 mb - 0.00 in0.0 mm 0.00 in0.0 mm
01:55 AM 68.8°F20.4°C 61.6°F16.4°C 78% 2.3 mph N3.7 kmh N 3.5 mph5.6 kmh 29.89 in1012.2 mb - 0.00 in0.0 mm 0.00 in0.0 mm
02:00 AM 68.5°F20.3°C 61.7°F16.5°C 79% 1.2 mph N1.9 kmh N 2.3 mph3.7 kmh 29.90 in1012.5 mb - 0.00 in0.0 mm 0.00 in0.0 mm
02:05 AM 68.3°F20.2°C 61.5°F16.4°C 79% 2.3 mph N3.7 kmh N 3.5 mph5.6 kmh 29.90 in1012.5 mb - 0.00 in0.0 mm 0.00 in0.0 mm
02:10 AM 68.0°F20.0°C 61.2°F16.2°C 79% 1.2 mph N1.9 kmh N 2.3 mph3.7 kmh 29.90 in1012.5 mb - 0.00 in0.0 mm 0.00 in0.0 mm
02:15 AM 67.8°F19.9°C 61.0°F16.1°C 79% 1.2 mph N1.9 kmh N 2.3 mph3.7 kmh 29.90 in1012.5 mb - 0.00 in0.0 mm 0.00 in0.0 mm
02:20 AM 67.7°F19.8°C 61.3°F16.3°C 80% 1.2 mph N1.9 kmh N 2.3 mph3.7 kmh 29.90 in1012.5 mb - 0.00 in0.0 mm 0.00 in0.0 mm
02:25 AM 67.6°F19.8°C 61.2°F16.2°C 80% 2.3 mph NE3.7 kmh NE 4.6 mph7.4 kmh 29.91 in1012.9 mb - 0.00 in0.0 mm 0.00 in0.0 mm
02:30 AM 67.5°F19.7°C 61.1°F16.2°C 80% 3.5 mph E5.6 kmh E 4.6 mph7.4 kmh 29.91 in1012.9 mb - 0.00 in0.0 mm 0.00 in0.0 mm
02:35 AM 67.2°F19.6°C 61.2°F16.2°C 81% 2.3 mph E3.7 kmh E 3.5 mph5.6 kmh 29.91 in1012.9 mb - 0.00 in0.0 mm 0.00 in0.0 mm
02:40 AM 67.0°F19.4°C 61.0°F16.1°C 81% 2.3 mph E3.7 kmh E 3.5 mph5.6 kmh 29.91 in1012.9 mb - 0.00 in0.0 mm 0.00 in0.0 mm
02:45 AM 66.9°F19.4°C 60.9°F16.1°C 81% 2.3 mph ENE3.7 kmh ENE 3.5 mph5.6 kmh 29.92 in1013.2 mb - 0.00 in0.0 mm 0.00 in0.0 mm
02:50 AM 66.8°F19.3°C 60.8°F16.0°C 81% 3.5 mph E5.6 kmh E 4.6 mph7.4 kmh 29.92 in1013.2 mb - 0.00 in0.0 mm 0.00 in0.0 mm
02:55 AM 66.8°F19.3°C 60.8°F16.0°C 81% 4.6 mph E7.4 kmh E 6.9 mph11.1 kmh 29.92 in1013.2 mb - 0.00 in0.0 mm 0.00 in0.0 mm
03:00 AM 66.8°F19.3°C 61.1°F16.2°C 82% 6.9 mph ESE11.1 kmh ESE 13.8 mph22.2 kmh 29.92 in1013.2 mb - 0.00 in0.0 mm 0.00 in0.0 mm
03:05 AM 66.9°F19.4°C 61.2°F16.2°C 82% 4.6 mph ESE7.4 kmh ESE 8.1 mph13.0 kmh 29.92 in1013.2 mb - 0.00 in0.0 mm 0.00 in0.0 mm
03:10 AM 67.0°F19.4°C 61.3°F16.3°C 82% 5.8 mph SE9.3 kmh SE 12.7 mph20.4 kmh 29.93 in1013.5 mb - 0.00 in0.0 mm 0.00 in0.0 mm
03:15 AM 67.1°F19.5°C 61.4°F16.3°C 82% 5.8 mph ESE9.3 kmh ESE 11.5 mph18.5 kmh 29.93 in1013.5 mb - 0.00 in0.0 mm 0.00 in0.0 mm
03:20 AM 67.2°F19.6°C 61.9°F16.6°C 83% 5.8 mph SE9.3 kmh SE 8.1 mph13.0 kmh 29.93 in1013.5 mb - 0.00 in0.0 mm 0.00 in0.0 mm
03:25 AM 67.3°F19.6°C 61.9°F16.6°C 83% 6.9 mph ESE11.1 kmh ESE 9.2 mph14.8 kmh 29.93 in1013.5 mb - 0.00 in0.0 mm 0.00 in0.0 mm
03:30 AM 67.3°F19.6°C 61.6°F16.4°C 82% 8.1 mph ESE13.0 kmh ESE 13.8 mph22.2 kmh 29.94 in1013.9 mb - 0.00 in0.0 mm 0.00 in0.0 mm
03:35 AM 67.3°F19.6°C 61.6°F16.4°C 82% 6.9 mph ESE11.1 kmh ESE 12.7 mph20.4 kmh 29.94 in1013.9 mb - 0.00 in0.0 mm 0.00 in0.0 mm
03:40 AM 67.3°F19.6°C 61.6°F16.4°C 82% 6.9 mph SE11.1 kmh SE 10.4 mph16.7 kmh 29.94 in1013.9 mb - 0.00 in0.0 mm 0.00 in0.0 mm
03:45 AM 67.3°F19.6°C 61.3°F16.3°C 81% 5.8 mph ESE9.3 kmh ESE 11.5 mph18.5 kmh 29.94 in1013.9 mb - 0.00 in0.0 mm 0.00 in0.0 mm
03:50 AM 67.3°F19.6°C 61.3°F16.3°C 81% 5.8 mph SE9.3 kmh SE 12.7 mph20.4 kmh 29.94 in1013.9 mb - 0.00 in0.0 mm 0.00 in0.0 mm
03:55 AM 67.3°F19.6°C 60.5°F15.8°C 79% 8.1 mph SE13.0 kmh SE 13.8 mph22.2 kmh 29.94 in1013.9 mb - 0.00 in0.0 mm 0.00 in0.0 mm
04:00 AM 67.2°F19.6°C 60.1°F15.6°C 78% 9.2 mph ESE14.8 kmh ESE 10.4 mph16.7 kmh 29.94 in1013.9 mb - 0.00 in0.0 mm 0.00 in0.0 mm
04:05 AM 67.0°F19.4°C 58.8°F14.9°C 75% 9.2 mph SE14.8 kmh SE 12.7 mph20.4 kmh 29.94 in1013.9 mb - 0.00 in0.0 mm 0.00 in0.0 mm
04:10 AM 66.8°F19.3°C 58.6°F14.8°C 75% 6.9 mph ESE11.1 kmh ESE 11.5 mph18.5 kmh 29.94 in1013.9 mb - 0.00 in0.0 mm 0.00 in0.0 mm
04:15 AM 66.7°F19.3°C 58.9°F14.9°C 76% 5.8 mph SE9.3 kmh SE 6.9 mph11.1 kmh 29.95 in1014.2 mb - 0.00 in0.0 mm 0.00 in0.0 mm
04:20 AM 66.5°F19.2°C 58.7°F14.8°C 76% 6.9 mph SE11.1 kmh SE 10.4 mph16.7 kmh 29.95 in1014.2 mb - 0.00 in0.0 mm 0.00 in0.0 mm
04:25 AM 66.3°F19.1°C 58.5°F14.7°C 76% 5.8 mph SE9.3 kmh SE 10.4 mph16.7 kmh 29.95 in1014.2 mb - 0.00 in0.0 mm 0.00 in0.0 mm
04:30 AM 66.2°F19.0°C 58.4°F14.7°C 76% 9.2 mph SE14.8 kmh SE 11.5 mph18.5 kmh 29.95 in1014.2 mb - 0.00 in0.0 mm 0.00 in0.0 mm
04:35 AM 66.1°F18.9°C 57.9°F14.4°C 75% 5.8 mph SE9.3 kmh SE 10.4 mph16.7 kmh 29.95 in1014.2 mb - 0.00 in0.0 mm 0.00 in0.0 mm
04:40 AM 66.0°F18.9°C 57.8°F14.3°C 75% 5.8 mph SE9.3 kmh SE 8.1 mph13.0 kmh 29.95 in1014.2 mb - 0.00 in0.0 mm 0.00 in0.0 mm
04:45 AM 65.8°F18.8°C 57.7°F14.3°C 75% 4.6 mph SE7.4 kmh SE 8.1 mph13.0 kmh 29.95 in1014.2 mb - 0.00 in0.0 mm 0.00 in0.0 mm
04:50 AM 65.7°F18.7°C 57.6°F14.2°C 75% 4.6 mph ESE7.4 kmh ESE 8.1 mph13.0 kmh 29.96 in1014.6 mb - 0.00 in0.0 mm 0.00 in0.0 mm
04:55 AM 65.6°F18.7°C 57.8°F14.3°C 76% 5.8 mph SE9.3 kmh SE 5.8 mph9.3 kmh 29.96 in1014.6 mb - 0.00 in0.0 mm 0.00 in0.0 mm
05:00 AM 65.4°F18.6°C 57.6°F14.2°C 76% 5.8 mph SE9.3 kmh SE 11.5 mph18.5 kmh 29.96 in1014.6 mb - 0.00 in0.0 mm 0.00 in0.0 mm
05:05 AM 65.3°F18.5°C 57.9°F14.4°C 77% 5.8 mph SE9.3 kmh SE 8.1 mph13.0 kmh 29.96 in1014.6 mb - 0.00 in0.0 mm 0.00 in0.0 mm
05:10 AM 65.2°F18.4°C 57.8°F14.3°C 77% 5.8 mph SE9.3 kmh SE 6.9 mph11.1 kmh 29.96 in1014.6 mb - 0.00 in0.0 mm 0.00 in0.0 mm
05:15 AM 65.0°F18.3°C 58.0°F14.4°C 78% 4.6 mph SE7.4 kmh SE 8.1 mph13.0 kmh 29.96 in1014.6 mb - 0.00 in0.0 mm 0.00 in0.0 mm
05:20 AM 64.8°F18.2°C 57.8°F14.3°C 78% 3.5 mph SE5.6 kmh SE 5.8 mph9.3 kmh 29.96 in1014.6 mb - 0.00 in0.0 mm 0.00 in0.0 mm
05:25 AM 64.7°F18.2°C 57.7°F14.3°C 78% 4.6 mph SE7.4 kmh SE 6.9 mph11.1 kmh 29.96 in1014.6 mb - 0.00 in0.0 mm 0.00 in0.0 mm
05:30 AM 64.5°F18.1°C 57.9°F14.4°C 79% 3.5 mph SE5.6 kmh SE 6.9 mph11.1 kmh 29.96 in1014.6 mb - 0.00 in0.0 mm 0.00 in0.0 mm
05:35 AM 64.4°F18.0°C 57.7°F14.3°C 79% 3.5 mph SE5.6 kmh SE 3.5 mph5.6 kmh 29.96 in1014.6 mb - 0.00 in0.0 mm 0.00 in0.0 mm
05:40 AM 64.3°F17.9°C 57.7°F14.3°C 79% 3.5 mph E5.6 kmh E 4.6 mph7.4 kmh 29.96 in1014.6 mb - 0.00 in0.0 mm 0.00 in0.0 mm
05:45 AM 64.3°F17.9°C 58.0°F14.4°C 80% 2.3 mph ENE3.7 kmh ENE 4.6 mph7.4 kmh 29.96 in1014.6 mb - 0.00 in0.0 mm 0.00 in0.0 mm
05:50 AM 64.2°F17.9°C 57.9°F14.4°C 80% 2.3 mph E3.7 kmh E 2.3 mph3.7 kmh 29.96 in1014.6 mb - 0.00 in0.0 mm 0.00 in0.0 mm
05:55 AM 64.2°F17.9°C 57.9°F14.4°C 80% 2.3 mph ENE3.7 kmh ENE 4.6 mph7.4 kmh 29.96 in1014.6 mb - 0.00 in0.0 mm 0.00 in0.0 mm
06:00 AM 64.1°F17.8°C 57.8°F14.3°C 80% 2.3 mph ENE3.7 kmh ENE 3.5 mph5.6 kmh 29.96 in1014.6 mb - 0.00 in0.0 mm 0.00 in0.0 mm
06:05 AM 64.1°F17.8°C 57.8°F14.3°C 80% 2.3 mph ENE3.7 kmh ENE 3.5 mph5.6 kmh 29.96 in1014.6 mb - 0.00 in0.0 mm 0.00 in0.0 mm
06:10 AM 64.1°F17.8°C 57.8°F14.3°C 80% 2.3 mph NE3.7 kmh NE 3.5 mph5.6 kmh 29.97 in1014.9 mb - 0.00 in0.0 mm 0.00 in0.0 mm
06:15 AM 64.1°F17.8°C 57.8°F14.3°C 80% 2.3 mph E3.7 kmh E 4.6 mph7.4 kmh 29.97 in1014.9 mb - 0.00 in0.0 mm 0.00 in0.0 mm
06:20 AM 64.1°F17.8°C 57.8°F14.3°C 80% 2.3 mph NE3.7 kmh NE 3.5 mph5.6 kmh 29.97 in1014.9 mb - 0.00 in0.0 mm 0.00 in0.0 mm
06:25 AM 64.1°F17.8°C 58.1°F14.5°C 81% 2.3 mph NE3.7 kmh NE 4.6 mph7.4 kmh 29.98 in1015.2 mb - 0.00 in0.0 mm 0.00 in0.0 mm
06:30 AM 64.3°F17.9°C 58.3°F14.6°C 81% 1.2 mph NE1.9 kmh NE 3.5 mph5.6 kmh 29.98 in1015.2 mb - 0.00 in0.0 mm 0.00 in0.0 mm
06:35 AM 64.4°F18.0°C 58.4°F14.7°C 81% 1.2 mph NE1.9 kmh NE 2.3 mph3.7 kmh 29.98 in1015.2 mb - 0.00 in0.0 mm 0.00 in0.0 mm
06:40 AM 64.5°F18.1°C 58.5°F14.7°C 81% 2.3 mph NE3.7 kmh NE 3.5 mph5.6 kmh 29.98 in1015.2 mb - 0.00 in0.0 mm 0.00 in0.0 mm
06:45 AM 64.6°F18.1°C 58.7°F14.8°C 81% 2.3 mph NNE3.7 kmh NNE 3.5 mph5.6 kmh 29.98 in1015.2 mb - 0.00 in0.0 mm 0.00 in0.0 mm
06:50 AM 64.8°F18.2°C 58.5°F14.7°C 80% 2.3 mph N3.7 kmh N 3.5 mph5.6 kmh 29.98 in1015.2 mb - 0.00 in0.0 mm 0.00 in0.0 mm
06:55 AM 64.9°F18.3°C 58.6°F14.8°C 80% 1.2 mph NNE1.9 kmh NNE 3.5 mph5.6 kmh 29.98 in1015.2 mb - 0.00 in0.0 mm 0.00 in0.0 mm
07:00 AM 65.2°F18.4°C 58.5°F14.7°C 79% 3.5 mph NE5.6 kmh NE 4.6 mph7.4 kmh 29.98 in1015.2 mb - 0.00 in0.0 mm 0.00 in0.0 mm
07:05 AM 65.5°F18.6°C 58.8°F14.9°C 79% 2.3 mph N3.7 kmh N 3.5 mph5.6 kmh 29.98 in1015.2 mb - 0.00 in0.0 mm 0.00 in0.0 mm
07:10 AM 65.8°F18.8°C 58.7°F14.8°C 78% 2.3 mph NE3.7 kmh NE 3.5 mph5.6 kmh 29.98 in1015.2 mb - 0.00 in0.0 mm 0.00 in0.0 mm
07:15 AM 66.0°F18.9°C 58.6°F14.8°C 77% 4.6 mph E7.4 kmh E 5.8 mph9.3 kmh 29.98 in1015.2 mb - 0.00 in0.0 mm 0.00 in0.0 mm
07:20 AM 66.3°F19.1°C 58.9°F14.9°C 77% 5.8 mph NE9.3 kmh NE 6.9 mph11.1 kmh 29.98 in1015.2 mb - 0.00 in0.0 mm 0.00 in0.0 mm
07:25 AM 66.5°F19.2°C 59.0°F15.0°C 77% 4.6 mph NE7.4 kmh NE 5.8 mph9.3 kmh 29.97 in1014.9 mb - 0.00 in0.0 mm 0.00 in0.0 mm
07:30 AM 66.5°F19.2°C 58.7°F14.8°C 76% 4.6 mph NE7.4 kmh NE 4.6 mph7.4 kmh 29.97 in1014.9 mb - 0.00 in0.0 mm 0.00 in0.0 mm
07:35 AM 66.8°F19.3°C 59.0°F15.0°C 76% 3.5 mph ENE5.6 kmh ENE 6.9 mph11.1 kmh 29.98 in1015.2 mb - 0.00 in0.0 mm 0.00 in0.0 mm
07:40 AM 67.0°F19.4°C 58.8°F14.9°C 75% 3.5 mph ENE5.6 kmh ENE 8.1 mph13.0 kmh 29.98 in1015.2 mb - 0.00 in0.0 mm 0.00 in0.0 mm
07:45 AM 67.4°F19.7°C 59.2°F15.1°C 75% 4.6 mph E7.4 kmh E 4.6 mph7.4 kmh 29.98 in1015.2 mb - 0.00 in0.0 mm 0.00 in0.0 mm
07:50 AM 67.7°F19.8°C 59.1°F15.1°C 74% 4.6 mph ENE7.4 kmh ENE 4.6 mph7.4 kmh 29.98 in1015.2 mb - 0.00 in0.0 mm 0.00 in0.0 mm
07:55 AM 68.3°F20.2°C 59.7°F15.4°C 74% 3.5 mph NE5.6 kmh NE 3.5 mph5.6 kmh 29.98 in1015.2 mb - 0.00 in0.0 mm 0.00 in0.0 mm
08:00 AM 68.5°F20.3°C 59.5°F15.3°C 73% 3.5 mph NE5.6 kmh NE 4.6 mph7.4 kmh 29.98 in1015.2 mb - 0.00 in0.0 mm 0.00 in0.0 mm
08:05 AM 68.9°F20.5°C 59.5°F15.3°C 72% 5.8 mph ENE9.3 kmh ENE 9.2 mph14.8 kmh 29.99 in1015.6 mb - 0.00 in0.0 mm 0.00 in0.0 mm
08:10 AM 69.0°F20.6°C 59.2°F15.1°C 71% 4.6 mph ENE7.4 kmh ENE 5.8 mph9.3 kmh 29.99 in1015.6 mb - 0.00 in0.0 mm 0.00 in0.0 mm
08:15 AM 69.2°F20.7°C 59.8°F15.4°C 72% 2.3 mph ENE3.7 kmh ENE 3.5 mph5.6 kmh 29.99 in1015.6 mb - 0.00 in0.0 mm 0.00 in0.0 mm
08:20 AM 69.5°F20.8°C 59.3°F15.2°C 70% 4.6 mph E7.4 kmh E 6.9 mph11.1 kmh 29.99 in1015.6 mb - 0.00 in0.0 mm 0.00 in0.0 mm
08:25 AM 69.8°F21.0°C 59.5°F15.3°C 70% 4.6 mph ENE7.4 kmh ENE 5.8 mph9.3 kmh 29.99 in1015.6 mb - 0.00 in0.0 mm 0.00 in0.0 mm
08:30 AM 70.2°F21.2°C 60.0°F15.6°C 70% 1.2 mph ESE1.9 kmh ESE 2.3 mph3.7 kmh 29.99 in1015.6 mb - 0.00 in0.0 mm 0.00 in0.0 mm
08:35 AM 70.6°F21.4°C 59.9°F15.5°C 69% 4.6 mph NE7.4 kmh NE 5.8 mph9.3 kmh 29.98 in1015.2 mb - 0.00 in0.0 mm 0.00 in0.0 mm
08:40 AM 70.8°F21.6°C 60.1°F15.6°C 69% 5.8 mph ENE9.3 kmh ENE 10.4 mph16.7 kmh 29.99 in1015.6 mb - 0.00 in0.0 mm 0.00 in0.0 mm
08:45 AM 71.0°F21.7°C 59.9°F15.5°C 68% 5.8 mph NE9.3 kmh NE 8.1 mph13.0 kmh 29.99 in1015.6 mb - 0.00 in0.0 mm 0.00 in0.0 mm
08:50 AM 71.2°F21.8°C 60.1°F15.6°C 68% 2.3 mph NE3.7 kmh NE 4.6 mph7.4 kmh 29.99 in1015.6 mb - 0.00 in0.0 mm 0.00 in0.0 mm
08:55 AM 71.6°F22.0°C 60.5°F15.8°C 68% 4.6 mph ENE7.4 kmh ENE 10.4 mph16.7 kmh 29.99 in1015.6 mb - 0.00 in0.0 mm 0.00 in0.0 mm
09:00 AM 71.7°F22.1°C 60.2°F15.7°C 67% 6.9 mph NE11.1 kmh NE 11.5 mph18.5 kmh 29.99 in1015.6 mb - 0.00 in0.0 mm 0.00 in0.0 mm
09:05 AM 71.9°F22.2°C 60.4°F15.8°C 67% 4.6 mph NE7.4 kmh NE 9.2 mph14.8 kmh 29.99 in1015.6 mb - 0.00 in0.0 mm 0.00 in0.0 mm
09:10 AM 72.1°F22.3°C 60.1°F15.6°C 66% 6.9 mph ENE11.1 kmh ENE 10.4 mph16.7 kmh 30.00 in1015.9 mb - 0.00 in0.0 mm 0.00 in0.0 mm
09:15 AM 72.2°F22.3°C 60.2°F15.7°C 66% 4.6 mph E7.4 kmh E 8.1 mph13.0 kmh 29.99 in1015.6 mb - 0.00 in0.0 mm 0.00 in0.0 mm
09:20 AM 72.8°F22.7°C 60.3°F15.7°C 65% 3.5 mph ENE5.6 kmh ENE 6.9 mph11.1 kmh 29.99 in1015.6 mb - 0.00 in0.0 mm 0.00 in0.0 mm
09:25 AM 73.1°F22.8°C 60.6°F15.9°C 65% 4.6 mph E7.4 kmh E 6.9 mph11.1 kmh 30.00 in1015.9 mb - 0.00 in0.0 mm 0.00 in0.0 mm
09:30 AM 73.5°F23.1°C 60.1°F15.6°C 63% 4.6 mph NE7.4 kmh NE 8.1 mph13.0 kmh 29.99 in1015.6 mb - 0.00 in0.0 mm 0.00 in0.0 mm
09:35 AM 73.6°F23.1°C 60.2°F15.7°C 63% 4.6 mph ENE7.4 kmh ENE 8.1 mph13.0 kmh 29.99 in1015.6 mb - 0.00 in0.0 mm 0.00 in0.0 mm
09:40 AM 73.8°F23.2°C 59.0°F15.0°C 60% 5.8 mph ENE9.3 kmh ENE 9.2 mph14.8 kmh 30.00 in1015.9 mb - 0.00 in0.0 mm 0.00 in0.0 mm
09:45 AM 74.1°F23.4°C 59.3°F15.2°C 60% 4.6 mph E7.4 kmh E 10.4 mph16.7 kmh 29.99 in1015.6 mb - 0.00 in0.0 mm 0.00 in0.0 mm
09:50 AM 74.5°F23.6°C 59.7°F15.4°C 60% 5.8 mph E9.3 kmh E 10.4 mph16.7 kmh 29.99 in1015.6 mb - 0.00 in0.0 mm 0.00 in0.0 mm
09:55 AM 74.7°F23.7°C 60.4°F15.8°C 61% 4.6 mph E7.4 kmh E 8.1 mph13.0 kmh 29.99 in1015.6 mb - 0.00 in0.0 mm 0.00 in0.0 mm
10:00 AM 74.6°F23.7°C 59.8°F15.4°C 60% 2.3 mph E3.7 kmh E 4.6 mph7.4 kmh 29.99 in1015.6 mb - 0.00 in0.0 mm 0.00 in0.0 mm
10:05 AM 74.7°F23.7°C 59.9°F15.5°C 60% 3.5 mph ENE5.6 kmh ENE 4.6 mph7.4 kmh 29.99 in1015.6 mb - 0.00 in0.0 mm 0.00 in0.0 mm
10:10 AM 75.3°F24.1°C 59.5°F15.3°C 58% 8.1 mph E13.0 kmh E 11.5 mph18.5 kmh 29.99 in1015.6 mb - 0.00 in0.0 mm 0.00 in0.0 mm
10:15 AM 75.2°F24.0°C 59.4°F15.2°C 58% 6.9 mph E11.1 kmh E 11.5 mph18.5 kmh 29.99 in1015.6 mb - 0.00 in0.0 mm 0.00 in0.0 mm
10:20 AM 75.1°F23.9°C 59.3°F15.2°C 58% 3.5 mph E5.6 kmh E 3.5 mph5.6 kmh 29.99 in1015.6 mb - 0.00 in0.0 mm 0.00 in0.0 mm
10:25 AM 75.6°F24.2°C 59.8°F15.4°C 58% 3.5 mph E5.6 kmh E 4.6 mph7.4 kmh 29.99 in1015.6 mb - 0.00 in0.0 mm 0.00 in0.0 mm
10:30 AM 75.9°F24.4°C 60.1°F15.6°C 58% 2.3 mph E3.7 kmh E 3.5 mph5.6 kmh 29.99 in1015.6 mb - 0.00 in0.0 mm 0.00 in0.0 mm
10:35 AM 75.9°F24.4°C 59.6°F15.3°C 57% 4.6 mph SE7.4 kmh SE 8.1 mph13.0 kmh 29.99 in1015.6 mb - 0.00 in0.0 mm 0.00 in0.0 mm
10:40 AM 76.1°F24.5°C 59.8°F15.4°C 57% 3.5 mph SE5.6 kmh SE 4.6 mph7.4 kmh 29.98 in1015.2 mb - 0.00 in0.0 mm 0.00 in0.0 mm
10:45 AM 76.0°F24.4°C 60.1°F15.6°C 58% 4.6 mph NNE7.4 kmh NNE 4.6 mph7.4 kmh 29.98 in1015.2 mb - 0.00 in0.0 mm 0.00 in0.0 mm
10:50 AM 76.3°F24.6°C 61.0°F16.1°C 59% 2.3 mph NNE3.7 kmh NNE 3.5 mph5.6 kmh 29.98 in1015.2 mb - 0.00 in0.0 mm 0.00 in0.0 mm
10:55 AM 76.5°F24.7°C 60.6°F15.9°C 58% 4.6 mph NE7.4 kmh NE 6.9 mph11.1 kmh 29.98 in1015.2 mb - 0.00 in0.0 mm 0.00 in0.0 mm
11:00 AM 76.5°F24.7°C 60.6°F15.9°C 58% 2.3 mph ESE3.7 kmh ESE 3.5 mph5.6 kmh 29.98 in1015.2 mb - 0.00 in0.0 mm 0.00 in0.0 mm
11:05 AM 76.9°F24.9°C 60.0°F15.6°C 56% 6.9 mph ESE11.1 kmh ESE 9.2 mph14.8 kmh 29.98 in1015.2 mb - 0.00 in0.0 mm 0.00 in0.0 mm
11:10 AM 76.9°F24.9°C 59.5°F15.3°C 55% 2.3 mph E3.7 kmh E 6.9 mph11.1 kmh 29.98 in1015.2 mb - 0.00 in0.0 mm 0.00 in0.0 mm
11:15 AM 77.0°F25.0°C 60.6°F15.9°C 57% 4.6 mph NE7.4 kmh NE 11.5 mph18.5 kmh 29.98 in1015.2 mb - 0.00 in0.0 mm 0.00 in0.0 mm
11:20 AM 77.1°F25.1°C 60.2°F15.7°C 56% 4.6 mph E7.4 kmh E 6.9 mph11.1 kmh 29.98 in1015.2 mb - 0.00 in0.0 mm 0.00 in0.0 mm
11:25 AM 77.3°F25.2°C 60.4°F15.8°C 56% 4.6 mph E7.4 kmh E 5.8 mph9.3 kmh 29.98 in1015.2 mb - 0.00 in0.0 mm 0.00 in0.0 mm
11:30 AM 77.2°F25.1°C 60.8°F16.0°C 57% 4.6 mph E7.4 kmh E 6.9 mph11.1 kmh 29.98 in1015.2 mb - 0.00 in0.0 mm 0.00 in0.0 mm
11:35 AM 78.1°F25.6°C 60.1°F15.6°C 54% 3.5 mph NE5.6 kmh NE 6.9 mph11.1 kmh 29.98 in1015.2 mb - 0.00 in0.0 mm 0.00 in0.0 mm
11:40 AM 77.8°F25.4°C 59.8°F15.4°C 54% 1.2 mph N1.9 kmh N 3.5 mph5.6 kmh 29.97 in1014.9 mb - 0.00 in0.0 mm 0.00 in0.0 mm
11:45 AM 78.1°F25.6°C 60.1°F15.6°C 54% 5.8 mph NE9.3 kmh NE 9.2 mph14.8 kmh 29.97 in1014.9 mb - 0.00 in0.0 mm 0.00 in0.0 mm
11:50 AM 77.9°F25.5°C 59.4°F15.2°C 53% 2.3 mph NE3.7 kmh NE 4.6 mph7.4 kmh 29.98 in1015.2 mb - 0.00 in0.0 mm 0.00 in0.0 mm
11:55 AM 77.6°F25.3°C 59.1°F15.1°C 53% 3.5 mph NW5.6 kmh NW 4.6 mph7.4 kmh 29.97 in1014.9 mb - 0.00 in0.0 mm 0.00 in0.0 mm
12:00 PM 78.0°F25.6°C 60.5°F15.8°C 55% 3.5 mph N5.6 kmh N 5.8 mph9.3 kmh 29.97 in1014.9 mb - 0.00 in0.0 mm 0.00 in0.0 mm
12:05 PM 77.8°F25.4°C 59.3°F15.2°C 53% 2.3 mph NNE3.7 kmh NNE 3.5 mph5.6 kmh 29.97 in1014.9 mb - 0.00 in0.0 mm 0.00 in0.0 mm
12:10 PM 78.4°F25.8°C 58.8°F14.9°C 51% 3.5 mph N5.6 kmh N 3.5 mph5.6 kmh 29.97 in1014.9 mb - 0.00 in0.0 mm 0.00 in0.0 mm
12:15 PM 78.6°F25.9°C 58.9°F14.9°C 51% 3.5 mph SE5.6 kmh SE 4.6 mph7.4 kmh 29.97 in1014.9 mb - 0.00 in0.0 mm 0.00 in0.0 mm
12:20 PM 80.1°F26.7°C 59.8°F15.4°C 50% 4.6 mph ENE7.4 kmh ENE 6.9 mph11.1 kmh 29.97 in1014.9 mb - 0.00 in0.0 mm 0.00 in0.0 mm
12:25 PM 79.3°F26.3°C 59.1°F15.1°C 50% 2.3 mph NNE3.7 kmh NNE 6.9 mph11.1 kmh 29.96 in1014.6 mb - 0.00 in0.0 mm 0.00 in0.0 mm
12:30 PM 79.5°F26.4°C 59.8°F15.4°C 51% 3.5 mph NNE5.6 kmh NNE 4.6 mph7.4 kmh 29.96 in1014.6 mb - 0.00 in0.0 mm 0.00 in0.0 mm
12:35 PM 79.2°F26.2°C 60.1°F15.6°C 52% 3.5 mph N5.6 kmh N 4.6 mph7.4 kmh 29.97 in1014.9 mb - 0.00 in0.0 mm 0.00 in0.0 mm
12:40 PM 79.4°F26.3°C 58.0°F14.4°C 48% 3.5 mph N5.6 kmh N 4.6 mph7.4 kmh 29.97 in1014.9 mb - 0.00 in0.0 mm 0.00 in0.0 mm
12:45 PM 79.4°F26.3°C 58.0°F14.4°C 48% 2.3 mph NE3.7 kmh NE 3.5 mph5.6 kmh 29.97 in1014.9 mb - 0.00 in0.0 mm 0.00 in0.0 mm
12:50 PM 80.7°F27.1°C 59.2°F15.1°C 48% 2.3 mph N3.7 kmh N 3.5 mph5.6 kmh 29.96 in1014.6 mb - 0.00 in0.0 mm 0.00 in0.0 mm
12:55 PM 80.5°F26.9°C 58.5°F14.7°C 47% 2.3 mph NNE3.7 kmh NNE 4.6 mph7.4 kmh 29.96 in1014.6 mb - 0.00 in0.0 mm 0.00 in0.0 mm
01:00 PM 80.1°F26.7°C 59.8°F15.4°C 50% 4.6 mph E7.4 kmh E 8.1 mph13.0 kmh 29.96 in1014.6 mb - 0.00 in0.0 mm 0.00 in0.0 mm
01:05 PM 80.1°F26.7°C 58.6°F14.8°C 48% 2.3 mph ESE3.7 kmh ESE 3.5 mph5.6 kmh 29.96 in1014.6 mb - 0.00 in0.0 mm 0.00 in0.0 mm
01:10 PM 80.3°F26.8°C 58.8°F14.9°C 48% 1.2 mph SSE1.9 kmh SSE 1.2 mph1.9 kmh 29.95 in1014.2 mb - 0.00 in0.0 mm 0.00 in0.0 mm
01:15 PM 80.9°F27.2°C 58.8°F14.9°C 47% 1.2 mph SE1.9 kmh SE 3.5 mph5.6 kmh 29.95 in1014.2 mb - 0.00 in0.0 mm 0.00 in0.0 mm
01:20 PM 81.1°F27.3°C 59.0°F15.0°C 47% 4.6 mph ENE7.4 kmh ENE 6.9 mph11.1 kmh 29.95 in1014.2 mb - 0.00 in0.0 mm 0.00 in0.0 mm
01:25 PM 80.8°F27.1°C 58.7°F14.8°C 47% 2.3 mph SE3.7 kmh SE 2.3 mph3.7 kmh 29.95 in1014.2 mb - 0.00 in0.0 mm 0.00 in0.0 mm
01:30 PM 81.4°F27.4°C 59.2°F15.1°C 47% 2.3 mph WSW3.7 kmh WSW 3.5 mph5.6 kmh 29.95 in1014.2 mb - 0.00 in0.0 mm 0.00 in0.0 mm
01:35 PM 81.3°F27.4°C 59.7°F15.4°C 48% 4.6 mph NE7.4 kmh NE 5.8 mph9.3 kmh 29.95 in1014.2 mb - 0.00 in0.0 mm 0.00 in0.0 mm
01:40 PM 81.3°F27.4°C 59.7°F15.4°C 48% 3.5 mph NE5.6 kmh NE 5.8 mph9.3 kmh 29.94 in1013.9 mb - 0.00 in0.0 mm 0.00 in0.0 mm
01:45 PM 81.6°F27.6°C 59.4°F15.2°C 47% 3.5 mph E5.6 kmh E 5.8 mph9.3 kmh 29.94 in1013.9 mb - 0.00 in0.0 mm 0.00 in0.0 mm
01:50 PM 81.1°F27.3°C 59.6°F15.3°C 48% 2.3 mph E3.7 kmh E 4.6 mph7.4 kmh 29.94 in1013.9 mb - 0.00 in0.0 mm 0.00 in0.0 mm
01:55 PM 81.8°F27.7°C 59.6°F15.3°C 47% 4.6 mph ENE7.4 kmh ENE 6.9 mph11.1 kmh 29.94 in1013.9 mb - 0.00 in0.0 mm 0.00 in0.0 mm
02:00 PM 81.8°F27.7°C 59.6°F15.3°C 47% 2.3 mph NE3.7 kmh NE 3.5 mph5.6 kmh 29.94 in1013.9 mb - 0.00 in0.0 mm 0.00 in0.0 mm
02:05 PM 81.9°F27.7°C 59.7°F15.4°C 47% 3.5 mph NE5.6 kmh NE 3.5 mph5.6 kmh 29.94 in1013.9 mb - 0.00 in0.0 mm 0.00 in0.0 mm
02:10 PM 81.5°F27.5°C 59.3°F15.2°C 47% 2.3 mph NE3.7 kmh NE 3.5 mph5.6 kmh 29.94 in1013.9 mb - 0.00 in0.0 mm 0.00 in0.0 mm
02:15 PM 81.8°F27.7°C 59.0°F15.0°C 46% Calm Calm 1.2 mph1.9 kmh 29.94 in1013.9 mb - 0.00 in0.0 mm 0.00 in0.0 mm
02:20 PM 82.3°F27.9°C 58.8°F14.9°C 45% 3.5 mph SE5.6 kmh SE 4.6 mph7.4 kmh 29.94 in1013.9 mb - 0.00 in0.0 mm 0.00 in0.0 mm
02:25 PM 82.6°F28.1°C 59.1°F15.1°C 45% 1.2 mph SSE1.9 kmh SSE 4.6 mph7.4 kmh 29.94 in1013.9 mb - 0.00 in0.0 mm 0.00 in0.0 mm
02:30 PM 81.9°F27.7°C 57.8°F14.3°C 44% 3.5 mph SE5.6 kmh SE 5.8 mph9.3 kmh 29.93 in1013.5 mb - 0.00 in0.0 mm 0.00 in0.0 mm
02:35 PM 81.9°F27.7°C 58.5°F14.7°C 45% 3.5 mph S5.6 kmh S 4.6 mph7.4 kmh 29.93 in1013.5 mb - 0.00 in0.0 mm 0.00 in0.0 mm
02:40 PM 81.9°F27.7°C 58.5°F14.7°C 45% 2.3 mph S3.7 kmh S 3.5 mph5.6 kmh 29.93 in1013.5 mb - 0.00 in0.0 mm 0.00 in0.0 mm
02:45 PM 82.3°F27.9°C 58.8°F14.9°C 45% 3.5 mph SE5.6 kmh SE 5.8 mph9.3 kmh 29.93 in1013.5 mb - 0.00 in0.0 mm 0.00 in0.0 mm
02:50 PM 81.8°F27.7°C 58.4°F14.7°C 45% 2.3 mph SE3.7 kmh SE 3.5 mph5.6 kmh 29.93 in1013.5 mb - 0.00 in0.0 mm 0.00 in0.0 mm
02:55 PM 81.8°F27.7°C 59.0°F15.0°C 46% 1.2 mph SE1.9 kmh SE 2.3 mph3.7 kmh 29.93 in1013.5 mb - 0.00 in0.0 mm 0.00 in0.0 mm
03:00 PM 82.3°F27.9°C 58.2°F14.6°C 44% 2.3 mph ESE3.7 kmh ESE 4.6 mph7.4 kmh 29.92 in1013.2 mb - 0.00 in0.0 mm 0.00 in0.0 mm
03:05 PM 82.5°F28.1°C 59.0°F15.0°C 45% 2.3 mph SE3.7 kmh SE 3.5 mph5.6 kmh 29.92 in1013.2 mb - 0.00 in0.0 mm 0.00 in0.0 mm
03:10 PM 82.6°F28.1°C 58.5°F14.7°C 44% 4.6 mph SE7.4 kmh SE 6.9 mph11.1 kmh 29.92 in1013.2 mb - 0.00 in0.0 mm 0.00 in0.0 mm
03:15 PM 82.9°F28.3°C 58.7°F14.8°C 44% 2.3 mph S3.7 kmh S 5.8 mph9.3 kmh 29.92 in1013.2 mb - 0.00 in0.0 mm 0.00 in0.0 mm
03:20 PM 82.5°F28.1°C 59.0°F15.0°C 45% 2.3 mph SSE3.7 kmh SSE 3.5 mph5.6 kmh 29.92 in1013.2 mb - 0.00 in0.0 mm 0.00 in0.0 mm
03:25 PM 82.4°F28.0°C 59.5°F15.3°C 46% 3.5 mph SE5.6 kmh SE 6.9 mph11.1 kmh 29.92 in1013.2 mb - 0.00 in0.0 mm 0.00 in0.0 mm
03:30 PM 82.2°F27.9°C 58.8°F14.9°C 45% 3.5 mph ESE5.6 kmh ESE 4.6 mph7.4 kmh 29.92 in1013.2 mb - 0.00 in0.0 mm 0.00 in0.0 mm
03:35 PM 82.5°F28.1°C 59.0°F15.0°C 45% 2.3 mph E3.7 kmh E 5.8 mph9.3 kmh 29.92 in1013.2 mb - 0.00 in0.0 mm 0.00 in0.0 mm
03:40 PM 82.2°F27.9°C 59.4°F15.2°C 46% 3.5 mph SE5.6 kmh SE 3.5 mph5.6 kmh 29.92 in1013.2 mb - 0.00 in0.0 mm 0.00 in0.0 mm
03:45 PM 82.3°F27.9°C 58.8°F14.9°C 45% 1.2 mph SE1.9 kmh SE 2.3 mph3.7 kmh 29.92 in1013.2 mb - 0.00 in0.0 mm 0.00 in0.0 mm
03:50 PM 82.3°F27.9°C 58.8°F14.9°C 45% 1.2 mph SE1.9 kmh SE 3.5 mph5.6 kmh 29.92 in1013.2 mb - 0.00 in0.0 mm 0.00 in0.0 mm
03:55 PM 82.3°F27.9°C 58.9°F14.9°C 45% 2.3 mph SSE3.7 kmh SSE 3.5 mph5.6 kmh 29.92 in1013.2 mb - 0.00 in0.0 mm 0.00 in0.0 mm
04:00 PM 82.0°F27.8°C 58.6°F14.8°C 45% 2.3 mph SE3.7 kmh SE 2.3 mph3.7 kmh 29.92 in1013.2 mb - 0.00 in0.0 mm 0.00 in0.0 mm
04:05 PM 82.5°F28.1°C 59.6°F15.3°C 46% 3.5 mph S5.6 kmh S 5.8 mph9.3 kmh 29.92 in1013.2 mb - 0.00 in0.0 mm 0.00 in0.0 mm
04:10 PM 83.1°F28.4°C 58.9°F14.9°C 44% 3.5 mph ESE5.6 kmh ESE 4.6 mph7.4 kmh 29.92 in1013.2 mb - 0.00 in0.0 mm 0.00 in0.0 mm
04:15 PM 83.0°F28.3°C 58.2°F14.6°C 43% 2.3 mph SE3.7 kmh SE 4.6 mph7.4 kmh 29.92 in1013.2 mb - 0.00 in0.0 mm 0.00 in0.0 mm
04:20 PM 82.5°F28.1°C 58.4°F14.7°C 44% Calm Calm 2.3 mph3.7 kmh 29.92 in1013.2 mb - 0.00 in0.0 mm 0.00 in0.0 mm
04:25 PM 82.7°F28.2°C 58.6°F14.8°C 44% 4.6 mph SE7.4 kmh SE 6.9 mph11.1 kmh 29.92 in1013.2 mb - 0.00 in0.0 mm 0.00 in0.0 mm
04:30 PM 82.9°F28.3°C 58.7°F14.8°C 44% 3.5 mph SE5.6 kmh SE 3.5 mph5.6 kmh 29.92 in1013.2 mb - 0.00 in0.0 mm 0.00 in0.0 mm
04:35 PM 82.5°F28.1°C 57.7°F14.3°C 43% 3.5 mph ESE5.6 kmh ESE 3.5 mph5.6 kmh 29.91 in1012.9 mb - 0.00 in0.0 mm 0.00 in0.0 mm
04:40 PM 82.9°F28.3°C 58.1°F14.5°C 43% 3.5 mph SW5.6 kmh SW 5.8 mph9.3 kmh 29.92 in1013.2 mb - 0.00 in0.0 mm 0.00 in0.0 mm
04:45 PM 83.2°F28.4°C 58.4°F14.7°C 43% 3.5 mph SW5.6 kmh SW 4.6 mph7.4 kmh 29.91 in1012.9 mb - 0.00 in0.0 mm 0.00 in0.0 mm
04:50 PM 82.9°F28.3°C 58.8°F14.9°C 44% 3.5 mph SE5.6 kmh SE 4.6 mph7.4 kmh 29.91 in1012.9 mb - 0.00 in0.0 mm 0.00 in0.0 mm
04:55 PM 82.7°F28.2°C 58.6°F14.8°C 44% 1.2 mph SE1.9 kmh SE 3.5 mph5.6 kmh 29.91 in1012.9 mb - 0.00 in0.0 mm 0.00 in0.0 mm
05:00 PM 82.4°F28.0°C 58.3°F14.6°C 44% 2.3 mph SE3.7 kmh SE 3.5 mph5.6 kmh 29.91 in1012.9 mb - 0.00 in0.0 mm 0.00 in0.0 mm
05:05 PM 82.5°F28.1°C 59.0°F15.0°C 45% 3.5 mph SE5.6 kmh SE 4.6 mph7.4 kmh 29.91 in1012.9 mb - 0.00 in0.0 mm 0.00 in0.0 mm
05:10 PM 82.5°F28.1°C 59.0°F15.0°C 45% 2.3 mph ESE3.7 kmh ESE 3.5 mph5.6 kmh 29.91 in1012.9 mb - 0.00 in0.0 mm 0.00 in0.0 mm
05:15 PM 82.9°F28.3°C 59.4°F15.2°C 45% 1.2 mph ESE1.9 kmh ESE 3.5 mph5.6 kmh 29.91 in1012.9 mb - 0.00 in0.0 mm 0.00 in0.0 mm
05:20 PM 83.0°F28.3°C 59.5°F15.3°C 45% 2.3 mph ESE3.7 kmh ESE 3.5 mph5.6 kmh 29.90 in1012.5 mb - 0.00 in0.0 mm 0.00 in0.0 mm
05:25 PM 82.7°F28.2°C 59.2°F15.1°C 45% 2.3 mph ESE3.7 kmh ESE 3.5 mph5.6 kmh 29.90 in1012.5 mb - 0.00 in0.0 mm 0.00 in0.0 mm
05:30 PM 82.8°F28.2°C 59.9°F15.5°C 46% 1.2 mph ESE1.9 kmh ESE 1.2 mph1.9 kmh 29.90 in1012.5 mb - 0.00 in0.0 mm 0.00 in0.0 mm
05:35 PM 82.5°F28.1°C 59.1°F15.1°C 45% 2.3 mph SE3.7 kmh SE 3.5 mph5.6 kmh 29.90 in1012.5 mb - 0.00 in0.0 mm 0.00 in0.0 mm
05:40 PM 82.4°F28.0°C 60.1°F15.6°C 47% 2.3 mph E3.7 kmh E 4.6 mph7.4 kmh 29.90 in1012.5 mb - 0.00 in0.0 mm 0.00 in0.0 mm
05:45 PM 82.5°F28.1°C 59.6°F15.3°C 46% 3.5 mph E5.6 kmh E 4.6 mph7.4 kmh 29.90 in1012.5 mb - 0.00 in0.0 mm 0.00 in0.0 mm
05:50 PM 82.5°F28.1°C 59.7°F15.4°C 46% 2.3 mph E3.7 kmh E 3.5 mph5.6 kmh 29.90 in1012.5 mb - 0.00 in0.0 mm 0.00 in0.0 mm
05:55 PM 82.5°F28.1°C 60.2°F15.7°C 47% 1.2 mph E1.9 kmh E 1.2 mph1.9 kmh 29.90 in1012.5 mb - 0.00 in0.0 mm 0.00 in0.0 mm
06:00 PM 82.4°F28.0°C 59.5°F15.3°C 46% 2.3 mph E3.7 kmh E 2.3 mph3.7 kmh 29.90 in1012.5 mb - 0.00 in0.0 mm 0.00 in0.0 mm
06:05 PM 82.4°F28.0°C 60.1°F15.6°C 47% 2.3 mph E3.7 kmh E 3.5 mph5.6 kmh 29.91 in1012.9 mb - 0.00 in0.0 mm 0.00 in0.0 mm
06:10 PM 82.3°F27.9°C 60.1°F15.6°C 47% 2.3 mph E3.7 kmh E 3.5 mph5.6 kmh 29.91 in1012.9 mb - 0.00 in0.0 mm 0.00 in0.0 mm
06:15 PM 82.1°F27.8°C 60.5°F15.8°C 48% 1.2 mph E1.9 kmh E 3.5 mph5.6 kmh 29.91 in1012.9 mb - 0.00 in0.0 mm 0.00 in0.0 mm
06:20 PM 82.0°F27.8°C 60.4°F15.8°C 48% 1.2 mph E1.9 kmh E 2.3 mph3.7 kmh 29.91 in1012.9 mb - 0.00 in0.0 mm 0.00 in0.0 mm
06:25 PM 81.7°F27.6°C 60.1°F15.6°C 48% 1.2 mph E1.9 kmh E 2.3 mph3.7 kmh 29.90 in1012.5 mb - 0.00 in0.0 mm 0.00 in0.0 mm
06:30 PM 81.6°F27.6°C 60.6°F15.9°C 49% 1.2 mph E1.9 kmh E 2.3 mph3.7 kmh 29.90 in1012.5 mb - 0.00 in0.0 mm 0.00 in0.0 mm
06:35 PM 81.6°F27.6°C 60.6°F15.9°C 49% 2.3 mph E3.7 kmh E 2.3 mph3.7 kmh 29.90 in1012.5 mb - 0.00 in0.0 mm 0.00 in0.0 mm
06:40 PM 81.5°F27.5°C 60.5°F15.8°C 49% 2.3 mph E3.7 kmh E 3.5 mph5.6 kmh 29.90 in1012.5 mb - 0.00 in0.0 mm 0.00 in0.0 mm
06:45 PM 81.3°F27.4°C 59.7°F15.4°C 48% 2.3 mph E3.7 kmh E 3.5 mph5.6 kmh 29.90 in1012.5 mb - 0.00 in0.0 mm 0.00 in0.0 mm
06:50 PM 81.0°F27.2°C 60.0°F15.6°C 49% 2.3 mph E3.7 kmh E 3.5 mph5.6 kmh 29.90 in1012.5 mb - 0.00 in0.0 mm 0.00 in0.0 mm
06:55 PM 80.8°F27.1°C 60.4°F15.8°C 50% 2.3 mph E3.7 kmh E 3.5 mph5.6 kmh 29.91 in1012.9 mb - 0.00 in0.0 mm 0.00 in0.0 mm
07:00 PM 80.7°F27.1°C 60.3°F15.7°C 50% 2.3 mph E3.7 kmh E 2.3 mph3.7 kmh 29.91 in1012.9 mb - 0.00 in0.0 mm 0.00 in0.0 mm
07:05 PM 80.3°F26.8°C 60.6°F15.9°C 51% 2.3 mph E3.7 kmh E 3.5 mph5.6 kmh 29.91 in1012.9 mb - 0.00 in0.0 mm 0.00 in0.0 mm
07:10 PM 80.0°F26.7°C 60.8°F16.0°C 52% 2.3 mph E3.7 kmh E 3.5 mph5.6 kmh 29.91 in1012.9 mb - 0.00 in0.0 mm 0.00 in0.0 mm
07:15 PM 79.6°F26.4°C 60.4°F15.8°C 52% 1.2 mph E1.9 kmh E 2.3 mph3.7 kmh 29.91 in1012.9 mb - 0.00 in0.0 mm 0.00 in0.0 mm
07:20 PM 79.3°F26.3°C 60.7°F15.9°C 53% Calm Calm 1.2 mph1.9 kmh 29.91 in1012.9 mb - 0.00 in0.0 mm 0.00 in0.0 mm
07:25 PM 79.2°F26.2°C 61.1°F16.2°C 54% 1.2 mph E1.9 kmh E 1.2 mph1.9 kmh 29.92 in1013.2 mb - 0.00 in0.0 mm 0.00 in0.0 mm
07:30 PM 79.0°F26.1°C 60.9°F16.1°C 54% Calm Calm -- 29.92 in1013.2 mb - 0.00 in0.0 mm 0.00 in0.0 mm
07:35 PM 78.8°F26.0°C 60.7°F15.9°C 54% Calm Calm 1.2 mph1.9 kmh 29.92 in1013.2 mb - 0.00 in0.0 mm 0.00 in0.0 mm
07:40 PM 78.6°F25.9°C 61.0°F16.1°C 55% Calm Calm 1.2 mph1.9 kmh 29.91 in1012.9 mb - 0.00 in0.0 mm 0.00 in0.0 mm
07:45 PM 78.3°F25.7°C 60.8°F16.0°C 55% Calm Calm -- 29.92 in1013.2 mb - 0.00 in0.0 mm 0.00 in0.0 mm
07:50 PM 77.8°F25.4°C 60.3°F15.7°C 55% Calm Calm -- 29.92 in1013.2 mb - 0.00 in0.0 mm 0.00 in0.0 mm
07:55 PM 77.3°F25.2°C 59.9°F15.5°C 55% Calm Calm -- 29.92 in1013.2 mb - 0.00 in0.0 mm 0.00 in0.0 mm
08:00 PM 77.0°F25.0°C 60.1°F15.6°C 56% Calm Calm -- 29.93 in1013.5 mb - 0.00 in0.0 mm 0.00 in0.0 mm
08:05 PM 76.8°F24.9°C 60.4°F15.8°C 57% Calm Calm -- 29.93 in1013.5 mb - 0.00 in0.0 mm 0.00 in0.0 mm
08:10 PM 76.6°F24.8°C 60.7°F15.9°C 58% Calm Calm -- 29.93 in1013.5 mb - 0.00 in0.0 mm 0.00 in0.0 mm
08:15 PM 76.4°F24.7°C 60.5°F15.8°C 58% Calm Calm -- 29.93 in1013.5 mb - 0.00 in0.0 mm 0.00 in0.0 mm
08:20 PM 76.1°F24.5°C 60.8°F16.0°C 59% Calm Calm -- 29.93 in1013.5 mb - 0.00 in0.0 mm 0.00 in0.0 mm
08:25 PM 75.8°F24.3°C 60.0°F15.6°C 58% Calm Calm -- 29.94 in1013.9 mb - 0.00 in0.0 mm 0.00 in0.0 mm
08:30 PM 75.6°F24.2°C 60.3°F15.7°C 59% Calm Calm -- 29.94 in1013.9 mb - 0.00 in0.0 mm 0.00 in0.0 mm
08:35 PM 75.4°F24.1°C 60.1°F15.6°C 59% Calm Calm -- 29.94 in1013.9 mb - 0.00 in0.0 mm 0.00 in0.0 mm
08:40 PM 75.2°F24.0°C 60.4°F15.8°C 60% 2.3 mph E3.7 kmh E 3.5 mph5.6 kmh 29.94 in1013.9 mb - 0.00 in0.0 mm 0.00 in0.0 mm
08:45 PM 75.0°F23.9°C 60.2°F15.7°C 60% 1.2 mph E1.9 kmh E 2.3 mph3.7 kmh 29.94 in1013.9 mb - 0.00 in0.0 mm 0.00 in0.0 mm
08:50 PM 74.9°F23.8°C 60.1°F15.6°C 60% 1.2 mph E1.9 kmh E 2.3 mph3.7 kmh 29.95 in1014.2 mb - 0.00 in0.0 mm 0.00 in0.0 mm
08:55 PM 74.8°F23.8°C 60.0°F15.6°C 60% 1.2 mph E1.9 kmh E 2.3 mph3.7 kmh 29.95 in1014.2 mb - 0.00 in0.0 mm 0.00 in0.0 mm
09:00 PM 74.7°F23.7°C 59.9°F15.5°C 60% 1.2 mph E1.9 kmh E 1.2 mph1.9 kmh 29.95 in1014.2 mb - 0.00 in0.0 mm 0.00 in0.0 mm
09:05 PM 74.6°F23.7°C 59.8°F15.4°C 60% 1.2 mph E1.9 kmh E 2.3 mph3.7 kmh 29.95 in1014.2 mb - 0.00 in0.0 mm 0.00 in0.0 mm
09:10 PM 74.5°F23.6°C 59.7°F15.4°C 60% 1.2 mph E1.9 kmh E 2.3 mph3.7 kmh 29.95 in1014.2 mb - 0.00 in0.0 mm 0.00 in0.0 mm
09:15 PM 74.3°F23.5°C 59.5°F15.3°C 60% 1.2 mph E1.9 kmh E 2.3 mph3.7 kmh 29.95 in1014.2 mb - 0.00 in0.0 mm 0.00 in0.0 mm
09:20 PM 74.1°F23.4°C 59.3°F15.2°C 60% 2.3 mph E3.7 kmh E 2.3 mph3.7 kmh 29.95 in1014.2 mb - 0.00 in0.0 mm 0.00 in0.0 mm
09:25 PM 74.0°F23.3°C 59.7°F15.4°C 61% 1.2 mph E1.9 kmh E 2.3 mph3.7 kmh 29.95 in1014.2 mb - 0.00 in0.0 mm 0.00 in0.0 mm
09:30 PM 73.9°F23.3°C 59.6°F15.3°C 61% Calm Calm 1.2 mph1.9 kmh 29.95 in1014.2 mb - 0.00 in0.0 mm 0.00 in0.0 mm
09:35 PM 73.8°F23.2°C 59.5°F15.3°C 61% Calm Calm 2.3 mph3.7 kmh 29.95 in1014.2 mb - 0.00 in0.0 mm 0.00 in0.0 mm
09:40 PM 73.7°F23.2°C 59.8°F15.4°C 62% 1.2 mph E1.9 kmh E 2.3 mph3.7 kmh 29.95 in1014.2 mb - 0.00 in0.0 mm 0.00 in0.0 mm
09:45 PM 73.5°F23.1°C 59.7°F15.4°C 62% 1.2 mph E1.9 kmh E 1.2 mph1.9 kmh 29.95 in1014.2 mb - 0.00 in0.0 mm 0.00 in0.0 mm
09:50 PM 73.2°F22.9°C 60.7°F15.9°C 65% Calm Calm -- 29.95 in1014.2 mb - 0.00 in0.0 mm 0.00 in0.0 mm
09:55 PM 72.8°F22.7°C 60.8°F16.0°C 66% Calm Calm -- 29.95 in1014.2 mb - 0.00 in0.0 mm 0.00 in0.0 mm
10:00 PM 72.5°F22.5°C 60.5°F15.8°C 66% Calm Calm -- 29.95 in1014.2 mb - 0.00 in0.0 mm 0.00 in0.0 mm
10:05 PM 72.3°F22.4°C 60.3°F15.7°C 66% Calm Calm -- 29.95 in1014.2 mb - 0.00 in0.0 mm 0.00 in0.0 mm
10:10 PM 72.0°F22.2°C 60.5°F15.8°C 67% Calm Calm -- 29.95 in1014.2 mb - 0.00 in0.0 mm 0.00 in0.0 mm
10:15 PM 71.7°F22.1°C 60.2°F15.7°C 67% Calm Calm -- 29.95 in1014.2 mb - 0.00 in0.0 mm 0.00 in0.0 mm
10:20 PM 71.5°F21.9°C 60.4°F15.8°C 68% Calm Calm -- 29.95 in1014.2 mb - 0.00 in0.0 mm 0.00 in0.0 mm
10:25 PM 71.4°F21.9°C 60.3°F15.7°C 68% Calm Calm -- 29.96 in1014.6 mb - 0.00 in0.0 mm 0.00 in0.0 mm
10:30 PM 71.3°F21.8°C 60.2°F15.7°C 68% Calm Calm -- 29.95 in1014.2 mb - 0.00 in0.0 mm 0.00 in0.0 mm
10:35 PM 71.1°F21.7°C 60.0°F15.6°C 68% Calm Calm -- 29.95 in1014.2 mb - 0.00 in0.0 mm 0.00 in0.0 mm
10:40 PM 71.0°F21.7°C 59.9°F15.5°C 68% Calm Calm -- 29.95 in1014.2 mb - 0.00 in0.0 mm 0.00 in0.0 mm
10:45 PM 70.9°F21.6°C 59.8°F15.4°C 68% 1.2 mph E1.9 kmh E 2.3 mph3.7 kmh 29.95 in1014.2 mb - 0.00 in0.0 mm 0.00 in0.0 mm
10:50 PM 70.8°F21.6°C 60.1°F15.6°C 69% 1.2 mph E1.9 kmh E 3.5 mph5.6 kmh 29.96 in1014.6 mb - 0.00 in0.0 mm 0.00 in0.0 mm
10:55 PM 70.7°F21.5°C 60.0°F15.6°C 69% 1.2 mph E1.9 kmh E 2.3 mph3.7 kmh 29.96 in1014.6 mb - 0.00 in0.0 mm 0.00 in0.0 mm
11:00 PM 70.6°F21.4°C 59.6°F15.3°C 68% 1.2 mph E1.9 kmh E 2.3 mph3.7 kmh 29.96 in1014.6 mb - 0.00 in0.0 mm 0.00 in0.0 mm
11:05 PM 70.6°F21.4°C 59.5°F15.3°C 68% 1.2 mph E1.9 kmh E 1.2 mph1.9 kmh 29.96 in1014.6 mb - 0.00 in0.0 mm 0.00 in0.0 mm
11:10 PM 70.6°F21.4°C 59.9°F15.5°C 69% 2.3 mph E3.7 kmh E 3.5 mph5.6 kmh 29.96 in1014.6 mb - 0.00 in0.0 mm 0.00 in0.0 mm
11:15 PM 70.5°F21.4°C 60.2°F15.7°C 70% 1.2 mph E1.9 kmh E 2.3 mph3.7 kmh 29.96 in1014.6 mb - 0.00 in0.0 mm 0.00 in0.0 mm
11:20 PM 70.4°F21.3°C 60.5°F15.8°C 71% Calm Calm 1.2 mph1.9 kmh 29.96 in1014.6 mb - 0.00 in0.0 mm 0.00 in0.0 mm
11:25 PM 70.1°F21.2°C 59.9°F15.5°C 70% Calm Calm -- 29.96 in1014.6 mb - 0.00 in0.0 mm 0.00 in0.0 mm
11:30 PM 70.0°F21.1°C 59.8°F15.4°C 70% 2.3 mph E3.7 kmh E 2.3 mph3.7 kmh 29.96 in1014.6 mb - 0.00 in0.0 mm 0.00 in0.0 mm
11:35 PM 69.8°F21.0°C 60.0°F15.6°C 71% 2.3 mph E3.7 kmh E 2.3 mph3.7 kmh 29.96 in1014.6 mb - 0.00 in0.0 mm 0.00 in0.0 mm
11:40 PM 69.7°F20.9°C 59.9°F15.5°C 71% 2.3 mph E3.7 kmh E 3.5 mph5.6 kmh 29.96 in1014.6 mb - 0.00 in0.0 mm 0.00 in0.0 mm
11:45 PM 69.5°F20.8°C 60.1°F15.6°C 72% 2.3 mph E3.7 kmh E 3.5 mph5.6 kmh 29.96 in1014.6 mb - 0.00 in0.0 mm 0.00 in0.0 mm
11:50 PM 69.4°F20.8°C 60.4°F15.8°C 73% 2.3 mph E3.7 kmh E 2.3 mph3.7 kmh 29.97 in1014.9 mb - 0.00 in0.0 mm 0.00 in0.0 mm
11:55 PM 69.2°F20.7°C 60.6°F15.9°C 74% 2.3 mph E3.7 kmh E 3.5 mph5.6 kmh 29.97 in1014.9 mb - 0.00 in0.0 mm 0.00 in0.0 mm